Time;durP1;ratioP1;P1;durP2;ratioP2;P2;SDS_P1;SDS_P2;PMS_P1;PMS_P2;Temp;Humidity;BMP_temperature;BMP_pressure;BME280_temperature;BME280_humidity;BME280_pressure;Samples;Min_cycle;Max_cycle;Signal;HPM_P1;HPM_P2
2023/02/08 00:01:24;;;;;;;327.60;161.50;;;;;;;-3.62;76.95;99476.55;108877;1251;96069;-75
2023/02/08 00:03:52;;;;;;;319.40;158.10;;;;;;;-3.61;76.93;99477.39;108887;1251;103210;-76
2023/02/08 00:06:21;;;;;;;338.30;163.20;;;;;;;-3.61;77.01;99474.17;108791;1251;100386;-74
2023/02/08 00:08:49;;;;;;;331.50;160.30;;;;;;;-3.59;77.03;99470.25;108814;1251;99933;-76
2023/02/08 00:11:17;;;;;;;338.40;162.40;;;;;;;-3.58;76.89;99472.14;108855;1251;95900;-74
2023/02/08 00:13:46;;;;;;;331.30;162.60;;;;;;;-3.60;76.93;99471.52;108888;1251;96198;-78
2023/02/08 00:16:15;;;;;;;325.60;161.30;;;;;;;-3.62;76.86;99472.12;108919;1251;103208;-78
2023/02/08 00:18:43;;;;;;;323.80;160.90;;;;;;;-3.64;76.97;99474.88;108839;1250;101436;-76
2023/02/08 00:21:14;;;;;;;333.40;165.00;;;;;;;-3.64;77.04;99475.08;108880;1251;99902;-81
2023/02/08 00:23:43;;;;;;;342.20;170.70;;;;;;;-3.64;77.16;99473.67;108855;1251;95541;-77
2023/02/08 00:26:11;;;;;;;334.30;164.20;;;;;;;-3.62;77.07;99472.52;108851;1253;96420;-76
2023/02/08 00:28:40;;;;;;;357.20;170.80;;;;;;;-3.62;77.16;99474.77;108887;1251;103599;-73
2023/02/08 00:31:08;;;;;;;353.50;165.00;;;;;;;-3.65;77.12;99471.58;108700;1251;101280;-76
2023/02/08 00:33:36;;;;;;;345.30;169.30;;;;;;;-3.66;77.07;99471.98;108825;1251;100476;-76
2023/02/08 00:36:07;;;;;;;369.40;170.00;;;;;;;-3.65;77.10;99469.66;108612;1251;96594;-76
2023/02/08 00:38:36;;;;;;;385.40;175.40;;;;;;;-3.64;77.18;99465.40;108825;1251;96122;-76
2023/02/08 00:41:05;;;;;;;363.80;169.90;;;;;;;-3.67;77.09;99470.78;108936;1251;103849;-80
2023/02/08 00:43:33;;;;;;;347.80;168.30;;;;;;;-3.69;77.13;99482.52;108868;1250;101035;-76
2023/02/08 00:46:01;;;;;;;327.10;159.60;;;;;;;-3.70;77.26;99487.10;108868;1251;99925;-76
2023/02/08 00:48:30;;;;;;;329.00;156.30;;;;;;;-3.69;77.19;99483.58;108856;1251;95565;-76
2023/02/08 00:51:02;;;;;;;325.10;153.80;;;;;;;-3.70;77.29;99478.33;108895;1251;96120;-76
2023/02/08 00:53:30;;;;;;;;;;;;;;;-3.70;77.22;99488.88;108879;1250;103492;-76
2023/02/08 00:55:58;;;;;;;295.70;145.00;;;;;;;-3.72;77.38;99494.61;108898;1251;100952;-76
2023/02/08 00:58:27;;;;;;;295.10;145.70;;;;;;;-3.72;77.27;99487.56;108887;1251;99503;-75
2023/02/08 01:00:55;;;;;;;314.90;151.50;;;;;;;-3.69;77.25;99479.00;108840;1251;95551;-75
2023/02/08 01:03:24;;;;;;;323.00;149.30;;;;;;;-3.69;77.30;99477.23;108886;1251;96012;-76
2023/02/08 01:05:53;;;;;;;320.40;145.70;;;;;;;-3.71;77.36;99479.58;108891;1251;103014;-80
2023/02/08 01:08:21;;;;;;;279.00;138.80;;;;;;;-3.70;77.44;99486.22;108897;1251;101383;-76
2023/02/08 01:10:49;;;;;;;276.20;134.40;;;;;;;-3.68;77.47;99483.66;108830;1251;100121;-76
2023/02/08 01:13:17;;;;;;;279.90;135.30;;;;;;;-3.66;77.57;99481.14;108854;1251;95501;-76
2023/02/08 01:15:46;;;;;;;270.20;131.10;;;;;;;-3.64;77.36;99484.75;108880;1251;96055;-81
2023/02/08 01:18:14;;;;;;;265.90;131.90;;;;;;;-3.64;77.40;99481.40;108741;1251;102146;-75
2023/02/08 01:20:42;;;;;;;265.80;130.70;;;;;;;-3.64;77.48;99481.60;108859;1251;101206;-75
2023/02/08 01:23:10;;;;;;;264.10;129.80;;;;;;;-3.63;77.42;99483.61;108871;1251;99961;-76
2023/02/08 01:25:38;;;;;;;258.30;127.50;;;;;;;-3.61;77.40;99485.09;108839;1251;95599;-76
2023/02/08 01:28:06;;;;;;;264.80;129.30;;;;;;;-3.59;77.34;99482.92;108852;1251;96041;-77
2023/02/08 01:30:34;;;;;;;265.80;129.50;;;;;;;-3.60;77.44;99480.30;108818;1250;103314;-76
2023/02/08 01:33:02;;;;;;;252.60;125.20;;;;;;;-3.58;77.40;99476.00;108884;1250;101357;-76
2023/02/08 01:35:30;;;;;;;255.60;125.00;;;;;;;-3.57;77.48;99479.12;108860;1252;99997;-76
2023/02/08 01:37:58;;;;;;;255.40;126.60;;;;;;;-3.57;77.50;99484.73;108737;1251;95578;-77
2023/02/08 01:40:26;;;;;;;250.70;126.70;;;;;;;-3.56;77.54;99486.11;108873;1251;96461;-76
2023/02/08 01:42:55;;;;;;;254.90;124.80;;;;;;;-3.53;77.65;99490.05;108836;1251;103655;-76
2023/02/08 01:45:32;;;;;;;253.20;127.80;;;;;;;-3.51;77.67;99488.19;108905;1251;101332;-81
2023/02/08 01:48:06;;;;;;;262.70;130.10;;;;;;;-3.50;77.75;99487.06;108841;1251;99858;-75
2023/02/08 01:50:48;;;;;;;254.40;128.20;;;;;;;-3.50;77.79;99484.93;108702;1251;95706;-78
2023/02/08 01:53:16;;;;;;;261.40;129.00;;;;;;;-3.50;77.85;99489.85;108846;1251;95592;-76
2023/02/08 01:55:51;;;;;;;254.60;127.20;;;;;;;-3.50;77.80;99488.64;108896;1251;102347;-76
2023/02/08 01:58:20;;;;;;;249.20;125.20;;;;;;;-3.49;77.76;99490.86;108839;1255;101219;-81
2023/02/08 02:00:49;;;;;;;220.40;111.50;;;;;;;-3.48;77.71;99494.00;108552;1251;99968;-76
2023/02/08 02:03:19;;;;;;;210.70;104.20;;;;;;;-3.48;77.69;99493.63;108694;1251;95605;-76
2023/02/08 02:05:52;;;;;;;217.90;110.70;;;;;;;-3.47;77.74;99496.02;108921;1251;96113;-75
2023/02/08 02:08:20;;;;;;;206.80;105.20;;;;;;;-3.46;77.63;99497.79;108607;1253;103584;-76
2023/02/08 02:10:50;;;;;;;212.40;107.80;;;;;;;-3.48;77.65;99504.70;108861;1250;101506;-79
2023/02/08 02:13:22;;;;;;;221.00;111.10;;;;;;;-3.48;77.74;99502.27;108753;1251;99356;-76
2023/02/08 02:15:51;;;;;;;216.90;107.80;;;;;;;-3.48;77.63;99504.18;108865;1251;95536;-76
2023/02/08 02:18:32;;;;;;;205.70;102.80;;;;;;;-3.48;77.71;99503.84;108859;1251;96027;-78
2023/02/08 02:21:03;;;;;;;195.00;97.30;;;;;;;-3.50;77.56;99507.11;108775;1251;103271;-76
2023/02/08 02:23:56;;;;;;;202.50;95.30;;;;;;;-3.49;77.75;99509.20;108832;1252;101285;-75
2023/02/08 02:26:46;;;;;;;187.90;92.80;;;;;;;-3.48;77.65;99507.20;108827;1251;99322;-76
2023/02/08 02:29:40;;;;;;;195.30;93.80;;;;;;;-3.50;77.64;99503.23;108841;1251;95554;-76
2023/02/08 02:32:26;;;;;;;186.60;95.10;;;;;;;-3.50;77.61;99501.27;108832;1251;96047;-78
2023/02/08 02:35:05;;;;;;;190.10;94.00;;;;;;;-3.48;77.86;99505.26;108848;1250;103612;-76
2023/02/08 02:37:37;;;;;;;185.40;92.10;;;;;;;-3.50;77.73;99506.72;108840;1251;101190;-76
2023/02/08 02:40:05;;;;;;;;;;;;;;;-3.49;77.77;99504.26;108881;1251;99700;-76
2023/02/08 02:45:43;;;;;;;186.30;92.80;;;;;;;-3.49;77.98;99505.11;108953;1251;95698;-76
2023/02/08 02:48:23;;;;;;;186.50;91.90;;;;;;;-3.49;77.94;99504.79;108644;1252;103629;-76
2023/02/08 02:50:58;;;;;;;184.20;94.00;;;;;;;-3.50;77.96;99503.08;108612;1253;100813;-80
2023/02/08 02:53:42;;;;;;;186.10;90.50;;;;;;;-3.51;77.98;99504.71;108781;1253;99966;-76
2023/02/08 02:56:15;;;;;;;191.20;94.40;;;;;;;-3.50;77.96;99512.05;108821;1251;95543;-80
2023/02/08 02:58:45;;;;;;;199.70;95.80;;;;;;;-3.50;78.00;99516.80;108894;1251;96052;-76
2023/02/08 03:01:13;;;;;;;202.40;94.70;;;;;;;-3.51;77.87;99516.30;108876;1251;103276;-78
2023/02/08 03:03:43;;;;;;;192.70;96.00;;;;;;;-3.50;77.98;99517.70;108938;1250;101567;-76
2023/02/08 03:06:19;;;;;;;201.70;97.60;;;;;;;-3.50;77.89;99520.16;108774;1251;99968;-78
2023/02/08 03:09:09;;;;;;;212.20;102.30;;;;;;;-3.50;78.03;99521.22;108784;1251;95626;-76
2023/02/08 03:11:40;;;;;;;212.00;103.60;;;;;;;-3.49;77.89;99522.89;108904;1251;95997;-81
2023/02/08 03:14:26;;;;;;;203.50;99.70;;;;;;;-3.46;78.00;99526.09;108897;1251;102428;-78
2023/02/08 03:17:24;;;;;;;212.10;102.90;;;;;;;-3.43;77.93;99530.55;108911;1251;101032;-76
2023/02/08 03:20:13;;;;;;;212.00;101.90;;;;;;;-3.44;77.79;99531.63;108898;1251;99929;-76
2023/02/08 03:22:41;;;;;;;206.30;101.00;;;;;;;-3.44;77.90;99527.80;108664;1251;95962;-76
2023/02/08 03:25:48;;;;;;;209.50;103.50;;;;;;;-3.46;77.81;99528.21;108725;1251;96045;-75
2023/02/08 03:28:33;;;;;;;214.10;104.30;;;;;;;-3.48;77.87;99521.43;108303;1257;104083;-77
2023/02/08 03:31:32;;;;;;;214.10;102.30;;;;;;;-3.51;77.90;99520.89;108163;1259;101193;-76
2023/02/08 03:34:19;;;;;;;204.50;100.50;;;;;;;-3.53;77.98;99517.65;107886;1265;99184;-76
2023/02/08 03:36:49;;;;;;;198.30;102.80;;;;;;;-3.55;78.08;99515.12;107847;1265;95621;-76
2023/02/08 03:39:23;;;;;;;218.40;105.30;;;;;;;-3.55;78.16;99511.93;107851;1265;96245;-79
2023/02/08 03:41:56;;;;;;;233.50;111.30;;;;;;;-3.53;78.22;99510.08;107688;1265;103450;-76
2023/02/08 03:44:33;;;;;;;241.10;117.40;;;;;;;-3.50;78.20;99507.29;107895;1265;101583;-76
2023/02/08 03:47:10;;;;;;;248.50;120.60;;;;;;;-3.48;78.20;99507.20;107858;1265;99511;-76
2023/02/08 03:49:39;;;;;;;241.00;116.30;;;;;;;-3.44;78.20;99509.30;107848;1266;95688;-76
2023/02/08 03:52:10;;;;;;;224.80;112.30;;;;;;;-3.40;78.19;99512.27;107885;1265;96215;-76
2023/02/08 03:54:47;;;;;;;223.20;112.10;;;;;;;-3.38;78.09;99513.40;107887;1265;103561;-76
2023/02/08 03:57:21;;;;;;;227.80;110.80;;;;;;;-3.40;78.02;99519.31;107889;1265;101417;-79
2023/02/08 03:59:58;;;;;;;232.90;111.40;;;;;;;-3.41;78.07;99521.31;107881;1265;99988;-76
2023/02/08 04:02:30;;;;;;;226.00;111.70;;;;;;;-3.41;78.04;99522.36;107861;1266;96120;-78
2023/02/08 04:05:00;;;;;;;225.80;110.00;;;;;;;-3.42;78.08;99518.68;108032;1259;95681;-75
2023/02/08 04:07:28;;;;;;;230.90;113.60;;;;;;;-3.43;77.96;99510.80;108242;1259;103600;-76
2023/02/08 04:09:57;;;;;;;247.00;118.10;;;;;;;-3.43;77.92;99508.20;108066;1259;101035;-81
2023/02/08 04:12:25;;;;;;;240.10;117.20;;;;;;;-3.43;77.97;99506.61;108823;1251;108175;-77
2023/02/08 04:14:53;;;;;;;240.60;114.30;;;;;;;-3.43;78.07;99507.46;108857;1251;95501;-79
2023/02/08 04:17:22;;;;;;;263.00;119.20;;;;;;;-3.43;78.09;99505.37;108855;1250;96067;-76
2023/02/08 04:19:50;;;;;;;245.90;118.50;;;;;;;-3.43;77.94;99507.66;108943;1251;103222;-76
2023/02/08 04:22:18;;;;;;;239.20;116.70;;;;;;;-3.45;77.97;99507.23;108912;1251;101656;-78
2023/02/08 04:24:46;;;;;;;232.50;112.80;;;;;;;-3.46;78.04;99508.17;108915;1251;99808;-76
2023/02/08 04:27:14;;;;;;;236.40;116.50;;;;;;;-3.47;78.09;99514.33;108864;1251;95655;-76
2023/02/08 04:29:42;;;;;;;249.30;116.70;;;;;;;-3.46;77.98;99518.36;108897;1251;96000;-76
2023/02/08 04:32:12;;;;;;;249.40;121.40;;;;;;;-3.47;78.05;99524.23;108871;1251;103467;-76
2023/02/08 04:34:40;;;;;;;241.70;119.40;;;;;;;-3.48;77.93;99522.67;108643;1250;102729;-81
2023/02/08 04:37:09;;;;;;;240.40;117.60;;;;;;;-3.51;77.92;99521.96;108592;1251;99955;-78
2023/02/08 04:39:38;;;;;;;233.00;114.50;;;;;;;-3.56;77.93;99527.64;108824;1251;95685;-77
2023/02/08 04:42:06;;;;;;;223.90;113.40;;;;;;;-3.58;77.91;99531.63;108876;1251;96018;-81
2023/02/08 04:44:35;;;;;;;228.50;115.20;;;;;;;-3.58;78.01;99527.02;108760;1251;102162;-76
2023/02/08 04:47:03;;;;;;;223.30;111.10;;;;;;;-3.56;77.94;99530.48;108704;1250;101262;-77
2023/02/08 04:49:31;;;;;;;221.80;107.90;;;;;;;-3.55;77.99;99532.38;108573;1251;99303;-79
2023/02/08 04:51:59;;;;;;;216.10;108.90;;;;;;;-3.56;77.93;99524.82;108849;1251;95659;-81
2023/02/08 04:54:27;;;;;;;236.00;115.20;;;;;;;-3.56;77.85;99519.76;108815;1251;96033;-78
2023/02/08 04:56:56;;;;;;;237.50;112.30;;;;;;;-3.57;77.81;99514.67;108647;1252;103573;-78
2023/02/08 04:59:24;;;;;;;213.00;109.80;;;;;;;-3.55;77.87;99519.88;108930;1251;101300;-78
2023/02/08 05:01:52;;;;;;;217.60;107.00;;;;;;;-3.57;77.97;99527.86;108894;1251;99909;-78
2023/02/08 05:04:20;;;;;;;227.10;108.70;;;;;;;-3.56;77.83;99520.45;108741;1251;95714;-76
2023/02/08 05:06:48;;;;;;;226.60;111.20;;;;;;;-3.55;77.80;99529.02;108886;1251;96058;-78
2023/02/08 05:09:16;;;;;;;226.80;111.80;;;;;;;-3.59;77.66;99545.36;108933;1251;103589;-75
2023/02/08 05:11:45;;;;;;;231.20;111.50;;;;;;;-3.62;77.70;99543.59;108886;1251;101079;-75
2023/02/08 05:14:13;;;;;;;223.20;113.10;;;;;;;-3.62;77.69;99546.55;108649;1252;100049;-76
2023/02/08 05:16:41;;;;;;;226.50;113.10;;;;;;;-3.60;77.81;99551.05;108872;1251;95555;-75
2023/02/08 05:19:11;;;;;;;229.10;114.20;;;;;;;-3.56;77.86;99554.40;108603;1251;96514;-75
2023/02/08 05:21:39;;;;;;;230.90;113.50;;;;;;;-3.55;77.75;99552.79;108893;1250;103422;-75
2023/02/08 05:24:11;;;;;;;240.80;116.80;;;;;;;-3.54;77.84;99543.74;108910;1250;101333;-78
2023/02/08 05:26:40;;;;;;;250.30;120.30;;;;;;;-3.58;77.86;99555.02;108700;1251;99863;-76
2023/02/08 05:29:09;;;;;;;264.60;126.30;;;;;;;-3.60;77.94;99558.80;108594;1254;95606;-78
2023/02/08 05:31:37;;;;;;;261.60;125.80;;;;;;;-3.56;78.03;99561.98;108858;1251;96036;-77
2023/02/08 05:34:05;;;;;;;282.60;140.30;;;;;;;-3.52;78.09;99566.03;108875;1251;103784;-77
2023/02/08 05:36:33;;;;;;;297.50;158.20;;;;;;;-3.50;78.16;99572.23;108901;1250;101613;-77
2023/02/08 05:39:02;;;;;;;290.90;146.30;;;;;;;-3.52;78.06;99573.55;108638;1252;100016;-75
2023/02/08 05:41:30;;;;;;;322.30;155.20;;;;;;;-3.59;77.99;99575.27;108836;1251;95589;-77
2023/02/08 05:43:58;;;;;;;327.20;156.30;;;;;;;-3.63;77.98;99583.05;108858;1251;96052;-77
2023/02/08 05:46:26;;;;;;;326.60;156.70;;;;;;;-3.64;77.99;99584.36;108732;1251;103775;-77
2023/02/08 05:48:55;;;;;;;255.10;123.90;;;;;;;-3.68;77.92;99588.71;108917;1251;101818;-75
2023/02/08 05:51:23;;;;;;;251.60;121.00;;;;;;;-3.78;77.88;99583.37;108652;1252;99026;-78
2023/02/08 05:53:51;;;;;;;252.50;119.20;;;;;;;-3.83;78.07;99583.78;108854;1251;95959;-75
2023/02/08 05:56:20;;;;;;;253.60;122.30;;;;;;;-3.83;78.02;99588.02;108664;1254;96117;-76
2023/02/08 05:58:48;;;;;;;247.00;123.80;;;;;;;-3.83;78.09;99587.82;108625;1254;102512;-76
2023/02/08 06:01:16;;;;;;;249.80;122.70;;;;;;;-3.82;78.16;99588.48;108634;1254;101242;-77
2023/02/08 06:03:44;;;;;;;248.20;121.70;;;;;;;-3.83;78.16;99593.10;108623;1254;99833;-77
2023/02/08 06:06:12;;;;;;;263.50;127.30;;;;;;;-3.84;78.10;99598.80;108429;1254;95655;-75
2023/02/08 06:08:41;;;;;;;272.20;135.40;;;;;;;-3.84;78.14;99595.63;108374;1254;96087;-79
2023/02/08 06:11:09;;;;;;;283.30;136.70;;;;;;;-3.82;78.28;99597.30;108445;1254;102752;-76
2023/02/08 06:13:37;;;;;;;285.50;135.00;;;;;;;-3.79;78.25;99599.09;108369;1254;101939;-78
2023/02/08 06:16:07;;;;;;;286.40;137.90;;;;;;;-3.78;78.29;99596.23;108609;1254;100058;-74
2023/02/08 06:18:35;;;;;;;294.30;138.60;;;;;;;-3.74;78.22;99605.02;108380;1254;95684;-76
2023/02/08 06:21:03;;;;;;;281.70;139.30;;;;;;;-3.73;78.18;99614.10;108630;1254;96084;-76
2023/02/08 06:23:32;;;;;;;294.70;144.30;;;;;;;-3.74;78.05;99615.23;108622;1254;103616;-76
2023/02/08 06:26:00;;;;;;;276.40;138.90;;;;;;;-3.76;77.94;99612.68;108644;1254;101279;-76
2023/02/08 06:28:28;;;;;;;266.60;131.00;;;;;;;-3.78;77.79;99611.91;108579;1254;99970;-75
2023/02/08 06:30:56;;;;;;;261.80;129.20;;;;;;;-3.81;77.57;99611.69;108617;1254;95667;-75
2023/02/08 06:33:24;;;;;;;265.80;132.90;;;;;;;-3.85;77.42;99621.20;108467;1253;96890;-76
2023/02/08 06:35:53;;;;;;;264.30;130.10;;;;;;;-3.91;77.25;99615.33;108849;1253;103506;-76
2023/02/08 06:38:21;;;;;;;263.20;133.00;;;;;;;-4.03;77.07;99615.80;108665;1252;101627;-76
2023/02/08 06:40:50;;;;;;;270.60;134.80;;;;;;;-4.10;76.96;99626.67;108852;1251;99763;-78
2023/02/08 06:43:19;;;;;;;267.80;136.80;;;;;;;-4.13;77.05;99633.48;108683;1251;95980;-81
2023/02/08 06:45:47;;;;;;;298.60;138.30;;;;;;;-4.13;77.25;99642.27;108905;1251;96082;-79
2023/02/08 06:48:15;;;;;;;265.00;134.70;;;;;;;-4.12;77.23;99644.73;108863;1251;103529;-77
2023/02/08 06:50:43;;;;;;;263.50;130.60;;;;;;;-4.13;77.35;99647.54;108940;1251;101626;-78
2023/02/08 06:53:17;;;;;;;265.90;132.80;;;;;;;-4.12;77.51;99644.54;108840;1251;99802;-76
2023/02/08 06:55:49;;;;;;;286.00;140.10;;;;;;;-4.11;77.59;99640.94;108854;1251;95627;-76
2023/02/08 06:58:18;;;;;;;277.90;139.80;;;;;;;-4.09;77.48;99639.98;108694;1254;97114;-77
2023/02/08 07:00:46;;;;;;;286.80;139.60;;;;;;;-4.06;77.52;99641.80;108860;1251;103523;-76
2023/02/08 07:03:16;;;;;;;281.00;138.70;;;;;;;-4.03;77.57;99645.34;108906;1251;101279;-76
2023/02/08 07:05:44;;;;;;;290.90;142.10;;;;;;;-4.03;77.53;99645.70;108921;1250;100248;-75
2023/02/08 07:08:12;;;;;;;269.60;136.50;;;;;;;-4.02;77.54;99646.74;108811;1251;95746;-77
2023/02/08 07:10:40;;;;;;;281.00;136.00;;;;;;;-4.02;77.55;99649.55;108855;1251;96047;-76
2023/02/08 07:13:08;;;;;;;293.30;143.60;;;;;;;-4.02;77.63;99650.25;108860;1251;102044;-78
2023/02/08 07:15:36;;;;;;;298.30;148.80;;;;;;;-3.98;77.64;99649.05;108878;1251;101678;-76
2023/02/08 07:18:05;;;;;;;296.90;147.90;;;;;;;-3.94;77.64;99652.20;108850;1251;99452;-75
2023/02/08 07:20:33;;;;;;;305.80;151.50;;;;;;;-3.91;77.72;99654.00;108892;1251;95669;-79
2023/02/08 07:23:01;;;;;;;293.20;144.90;;;;;;;-3.88;77.91;99655.80;108911;1251;96076;-75
2023/02/08 07:25:29;;;;;;;289.40;144.60;;;;;;;-3.86;77.83;99655.88;108714;1251;103363;-75
2023/02/08 07:27:57;;;;;;;294.30;144.90;;;;;;;-3.84;77.87;99658.76;108870;1251;101344;-81
2023/02/08 07:30:25;;;;;;;274.80;134.70;;;;;;;-3.78;77.87;99658.53;108834;1251;99371;-76
2023/02/08 07:32:53;;;;;;;249.70;123.30;;;;;;;-3.71;77.93;99653.80;108769;1251;95603;-75
2023/02/08 07:35:21;;;;;;;241.70;115.50;;;;;;;-3.61;77.92;99654.74;108875;1251;96006;-73
2023/02/08 07:37:49;;;;;;;234.00;115.10;;;;;;;-3.54;77.75;99657.12;108975;1251;102438;-76
2023/02/08 07:40:17;;;;;;;228.80;117.10;;;;;;;-3.53;77.64;99653.01;108919;1251;100406;-75
2023/02/08 07:42:45;;;;;;;240.10;120.10;;;;;;;-3.51;77.43;99649.37;108864;1251;100105;-75
2023/02/08 07:45:14;;;;;;;229.30;111.70;;;;;;;-3.47;77.62;99649.20;108758;1251;156805;-75
2023/02/08 07:47:42;;;;;;;239.10;116.90;;;;;;;-3.48;77.50;99653.27;108649;1252;96048;-75
2023/02/08 07:50:10;;;;;;;236.60;116.40;;;;;;;-3.45;77.57;99656.70;108884;1250;103813;-79
2023/02/08 07:52:38;;;;;;;239.80;119.60;;;;;;;-3.41;77.48;99658.78;108877;1251;101597;-75
2023/02/08 07:55:08;;;;;;;268.60;135.40;;;;;;;-3.36;77.52;99666.48;108837;1251;99983;-74
2023/02/08 07:57:36;;;;;;;264.00;130.50;;;;;;;-3.32;77.51;99661.89;108831;1251;95546;-75
2023/02/08 08:00:05;;;;;;;242.60;124.20;;;;;;;-3.28;77.52;99657.34;108918;1251;96544;-75
2023/02/08 08:02:33;;;;;;;242.10;125.50;;;;;;;-3.21;77.53;99658.07;108857;1254;112092;-75
2023/02/08 08:05:01;;;;;;;233.10;118.30;;;;;;;-3.16;77.50;99657.80;108863;1251;101289;-75
2023/02/08 08:07:29;;;;;;;236.30;116.10;;;;;;;-3.10;77.45;99654.70;108815;1251;99865;-76
2023/02/08 08:09:57;;;;;;;227.40;115.40;;;;;;;-3.04;77.36;99657.63;108829;1251;95527;-78
2023/02/08 08:12:26;;;;;;;244.10;120.10;;;;;;;-2.99;77.39;99660.69;108893;1251;97081;-75
2023/02/08 08:14:54;;;;;;;234.70;112.80;;;;;;;-2.93;77.42;99660.26;108858;1251;103204;-75
2023/02/08 08:17:22;;;;;;;229.00;114.80;;;;;;;-2.86;77.23;99665.58;108746;1252;101429;-78
2023/02/08 08:19:50;;;;;;;273.90;132.40;;;;;;;-2.82;77.27;99663.61;108853;1251;108553;-76
2023/02/08 08:22:18;;;;;;;309.10;148.50;;;;;;;-2.77;77.29;99662.09;108567;1256;95680;-75
2023/02/08 08:24:52;;;;;;;331.90;164.30;;;;;;;-2.71;77.34;99667.10;108828;1254;96447;-74
2023/02/08 08:27:20;;;;;;;331.20;173.50;;;;;;;-2.64;77.31;99671.54;108886;1251;102513;-76
2023/02/08 08:29:48;;;;;;;401.30;218.90;;;;;;;-2.60;77.27;99667.45;108831;1254;101691;-74
2023/02/08 08:32:17;;;;;;;422.00;228.30;;;;;;;-2.64;77.12;99667.48;108794;1251;99541;-75
2023/02/08 08:34:45;;;;;;;394.50;211.00;;;;;;;-2.72;76.93;99669.46;108814;1251;95556;-78
2023/02/08 08:37:16;;;;;;;349.10;181.70;;;;;;;-2.79;77.05;99671.20;108840;1251;96036;-75
2023/02/08 08:39:44;;;;;;;326.40;165.00;;;;;;;-2.78;77.23;99677.34;108826;1251;112134;-78
2023/02/08 08:42:13;;;;;;;285.50;147.70;;;;;;;-2.74;77.38;99678.02;108861;1250;101322;-75
2023/02/08 08:44:44;;;;;;;298.50;150.60;;;;;;;-2.67;77.27;99675.20;108645;1251;99878;-77
2023/02/08 08:47:12;;;;;;;289.80;146.30;;;;;;;-2.60;77.19;99674.16;108657;1254;95564;-74
2023/02/08 08:49:41;;;;;;;288.30;145.50;;;;;;;-2.53;77.23;99674.70;108873;1251;96126;-76
2023/02/08 08:52:10;;;;;;;303.30;162.40;;;;;;;-2.48;77.23;99674.48;108821;1251;103067;-76
2023/02/08 08:54:39;;;;;;;303.00;161.10;;;;;;;-2.50;77.18;99678.83;108836;1255;101272;-75
2023/02/08 08:57:09;;;;;;;326.50;170.70;;;;;;;-2.49;77.20;99683.88;108801;1251;99857;-74
2023/02/08 08:59:37;;;;;;;303.90;162.20;;;;;;;-2.42;77.30;99687.57;108785;1251;95587;-76
2023/02/08 09:02:05;;;;;;;259.60;133.40;;;;;;;-2.33;77.29;99692.61;108891;1251;96106;-75
2023/02/08 09:04:34;;;;;;;264.00;134.00;;;;;;;-2.31;77.26;99691.98;108883;1251;102249;-77
2023/02/08 09:07:02;;;;;;;266.40;135.30;;;;;;;-2.28;77.34;99696.55;108878;1250;101136;-77
2023/02/08 09:09:30;;;;;;;252.70;129.00;;;;;;;-2.19;77.29;99696.52;108763;1251;99526;-76
2023/02/08 09:11:58;;;;;;;247.00;125.70;;;;;;;-2.14;77.17;99694.98;108627;1251;95621;-75
2023/02/08 09:14:26;;;;;;;220.30;115.80;;;;;;;-2.11;77.09;99699.81;108902;1251;95928;-79
2023/02/08 09:16:54;;;;;;;235.10;118.00;;;;;;;-2.06;77.16;99703.95;108875;1251;103413;-75
2023/02/08 09:19:23;;;;;;;236.80;121.20;;;;;;;-1.99;77.14;99702.69;108945;1255;100487;-76
2023/02/08 09:21:51;;;;;;;232.00;117.50;;;;;;;-1.92;77.01;99698.63;108796;1250;108746;-75
2023/02/08 09:24:19;;;;;;;247.60;127.60;;;;;;;-1.85;76.96;99697.39;108836;1251;95638;-80
2023/02/08 09:26:47;;;;;;;257.50;129.80;;;;;;;-1.81;76.97;99696.14;108575;1252;95754;-75
2023/02/08 09:29:28;;;;;;;229.40;116.90;;;;;;;-1.75;77.06;99696.73;108920;1251;103053;-75
2023/02/08 09:31:57;;;;;;;180.10;90.00;;;;;;;-1.68;76.83;99696.87;108764;1253;101170;-77
2023/02/08 09:34:25;;;;;;;175.80;90.40;;;;;;;-1.58;76.82;99694.27;108789;1256;99763;-75
2023/02/08 09:36:53;;;;;;;160.30;82.80;;;;;;;-1.43;76.73;99690.08;108659;1251;95582;-76
2023/02/08 09:39:23;;;;;;;135.40;68.80;;;;;;;-1.30;76.52;99687.62;108764;1252;96013;-74
2023/02/08 09:41:54;;;;;;;119.20;60.50;;;;;;;-1.17;76.33;99691.15;108834;1253;103236;-74
2023/02/08 09:44:38;;;;;;;103.60;53.50;;;;;;;-0.94;76.34;99686.19;108798;1254;101376;-74
2023/02/08 09:47:29;;;;;;;99.70;46.40;;;;;;;-0.63;76.24;99681.45;108806;1252;99708;-74
2023/02/08 09:50:21;;;;;;;79.70;42.30;;;;;;;-0.26;75.72;99677.73;108195;1259;96021;-74
2023/02/08 09:53:04;;;;;;;66.30;34.60;;;;;;;0.08;75.05;99675.05;108229;1259;95700;-73
2023/02/08 09:55:37;;;;;;;55.60;29.90;;;;;;;0.36;74.73;99676.05;108190;1260;103498;-79
2023/02/08 09:58:38;;;;;;;50.30;25.10;;;;;;;0.68;74.40;99676.91;108221;1259;101243;-72
2023/02/08 10:01:23;;;;;;;36.00;19.40;;;;;;;1.03;73.80;99673.45;108205;1260;100179;-74
2023/02/08 10:04:06;;;;;;;35.50;18.70;;;;;;;1.32;73.16;99665.05;108071;1259;95726;-77
2023/02/08 10:06:35;;;;;;;26.90;16.00;;;;;;;1.40;72.14;99665.96;108206;1259;95729;-78
2023/02/08 10:09:13;;;;;;;27.10;14.60;;;;;;;1.45;71.67;99664.70;108189;1259;103542;-75
2023/02/08 10:11:56;;;;;;;23.90;13.10;;;;;;;1.66;71.27;99667.97;108249;1259;101718;-74
2023/02/08 10:14:48;;;;;;;23.50;13.50;;;;;;;1.88;70.92;99669.21;108202;1260;100049;-74
2023/02/08 10:17:35;;;;;;;25.90;13.10;;;;;;;2.14;70.57;99665.28;108270;1259;95603;-74
2023/02/08 10:20:31;;;;;;;26.10;13.70;;;;;;;2.43;70.21;99665.72;108231;1259;96639;-74
2023/02/08 10:23:07;;;;;;;26.20;13.40;;;;;;;2.68;69.46;99663.64;108251;1263;102539;-73
2023/02/08 10:25:41;;;;;;;28.90;14.60;;;;;;;2.82;68.94;99660.38;108286;1261;101377;-76
2023/02/08 10:28:54;;;;;;;26.30;15.00;;;;;;;3.00;68.35;99659.64;108697;1253;98815;-73
2023/02/08 10:31:35;;;;;;;27.20;16.10;;;;;;;3.28;67.96;99658.84;108335;1259;95652;-74
2023/02/08 10:34:29;;;;;;;27.60;15.20;;;;;;;3.59;67.61;99661.56;108141;1265;95834;-81
2023/02/08 10:36:57;;;;;;;28.20;15.00;;;;;;;3.80;66.30;99661.79;108076;1259;103349;-81
2023/02/08 10:39:33;;;;;;;28.10;16.00;;;;;;;3.95;65.97;99663.70;108150;1260;101517;-81
2023/02/08 10:42:01;;;;;;;30.70;16.20;;;;;;;4.20;65.79;99660.34;108251;1259;98493;-80
2023/02/08 10:44:41;;;;;;;25.90;15.10;;;;;;;4.24;64.89;99657.71;108235;1260;95665;-79
2023/02/08 10:47:25;;;;;;;30.10;16.20;;;;;;;4.11;64.57;99661.29;108229;1260;95647;-80
2023/02/08 10:49:53;;;;;;;28.60;15.90;;;;;;;4.06;64.24;99658.79;108288;1259;102453;-80
2023/02/08 10:52:21;;;;;;;28.10;14.60;;;;;;;4.23;64.79;99654.45;108276;1259;101088;-80
2023/02/08 10:54:49;;;;;;;30.60;17.30;;;;;;;4.35;64.37;99657.79;108162;1261;100071;-80
2023/02/08 10:57:24;;;;;;;30.90;16.40;;;;;;;4.25;63.57;99656.95;108160;1261;95921;-79
2023/02/08 11:00:04;;;;;;;30.40;16.50;;;;;;;4.26;63.61;99654.38;108211;1260;96706;-79
2023/02/08 11:02:35;;;;;;;33.60;16.20;;;;;;;4.20;63.25;99650.70;108187;1260;103313;-80
2023/02/08 11:05:08;;;;;;;31.50;17.10;;;;;;;4.20;63.29;99648.56;108180;1261;101358;-80
2023/02/08 11:07:37;;;;;;;25.90;14.30;;;;;;;4.47;63.04;99646.16;108308;1254;99778;-81
2023/02/08 11:10:20;;;;;;;27.80;16.00;;;;;;;4.78;62.29;99643.05;108198;1260;95714;-80
2023/02/08 11:13:15;;;;;;;24.40;14.50;;;;;;;5.13;62.54;99637.92;108269;1260;96028;-80
2023/02/08 11:15:58;;;;;;;26.60;15.20;;;;;;;5.54;62.13;99627.23;108245;1262;103436;-80
2023/02/08 11:18:31;;;;;;;29.00;16.50;;;;;;;5.87;61.86;99628.78;108323;1261;100356;-80